Time;durP1;ratioP1;P1;durP2;ratioP2;P2;SDS_P1;SDS_P2;PMS_P1;PMS_P2;Temp;Humidity;BMP_temperature;BMP_pressure;BME280_temperature;BME280_humidity;BME280_pressure;Samples;Min_cycle;Max_cycle;Signal;HPM_P1;HPM_P2
2023/08/17 00:01:00;;;;;;;17.10;4.70;;;;;;;23.21;66.08;99707.85;78100;1295;3028649;-67
2023/08/17 00:03:27;;;;;;;6.80;5.20;;;;;;;23.20;66.19;99710.43;79519;1295;3013966;-65
2023/08/17 00:05:53;;;;;;;10.50;4.80;;;;;;;23.17;66.53;99711.68;79324;1299;3014090;-65
2023/08/17 00:08:21;;;;;;;9.40;4.60;;;;;;;23.12;66.66;99704.84;78187;1298;3026060;-62
2023/08/17 00:10:48;;;;;;;6.50;4.50;;;;;;;23.10;66.93;99703.59;79291;1300;3012996;-65
2023/08/17 00:13:14;;;;;;;8.10;4.50;;;;;;;23.09;67.26;99706.63;79351;1300;3012676;-64
2023/08/17 00:15:45;;;;;;;12.50;5.20;;;;;;;23.07;67.13;99707.71;78055;1300;3026533;-67
2023/08/17 00:18:12;;;;;;;8.90;4.40;;;;;;;23.04;67.50;99705.50;79270;1299;3014106;-66
2023/08/17 00:20:38;;;;;;;6.20;4.80;;;;;;;23.03;67.17;99704.09;79348;1297;3013102;-64
2023/08/17 00:23:06;;;;;;;10.20;4.50;;;;;;;22.98;67.46;99703.59;78102;1300;3052579;-65
2023/08/17 00:25:33;;;;;;;7.10;5.00;;;;;;;22.98;67.56;99705.90;79293;1301;3013176;-66
2023/08/17 00:27:59;;;;;;;7.60;4.60;;;;;;;22.94;67.61;99705.14;79320;1298;3013525;-65
2023/08/17 00:30:27;;;;;;;6.60;4.70;;;;;;;22.92;67.48;99708.28;78230;1299;3029343;-64
2023/08/17 00:32:54;;;;;;;11.40;4.70;;;;;;;22.88;67.84;99705.73;79272;1295;3013345;-65
2023/08/17 00:35:21;;;;;;;6.70;4.40;;;;;;;22.85;67.84;99700.28;79318;1301;3011511;-65
2023/08/17 00:37:48;;;;;;;9.60;4.30;;;;;;;22.85;67.59;99704.39;78124;1301;3028142;-65
2023/08/17 00:40:15;;;;;;;7.60;4.50;;;;;;;22.83;67.98;99702.31;79308;1300;3012941;-64
2023/08/17 00:42:42;;;;;;;11.60;5.20;;;;;;;22.80;67.74;99700.81;79430;1299;3011795;-65
2023/08/17 00:45:10;;;;;;;12.00;4.80;;;;;;;22.78;67.81;99700.67;78056;1301;3027530;-67
2023/08/17 00:47:37;;;;;;;7.50;4.90;;;;;;;22.77;67.68;99699.66;79497;1295;3013329;-65
2023/08/17 00:50:04;;;;;;;6.90;4.50;;;;;;;22.77;67.71;99700.41;79328;1295;3011414;-64
2023/08/17 00:52:32;;;;;;;11.70;4.60;;;;;;;22.78;67.67;99703.23;78189;1300;3028704;-67
2023/08/17 00:54:59;;;;;;;7.40;4.80;;;;;;;22.75;67.54;99698.33;79347;1301;3013233;-63
2023/08/17 00:57:25;;;;;;;6.30;4.60;;;;;;;22.75;67.39;99700.51;79309;1300;3013659;-65
2023/08/17 00:59:53;;;;;;;8.10;4.80;;;;;;;22.75;67.38;99702.22;75977;1296;5826511;-68
2023/08/17 01:02:19;;;;;;;6.40;4.50;;;;;;;22.72;67.62;99701.52;79402;1295;3012817;-62
2023/08/17 01:04:46;;;;;;;9.60;4.60;;;;;;;22.70;67.73;99701.87;79278;1295;3011642;-66
2023/08/17 01:07:14;;;;;;;6.50;4.70;;;;;;;22.72;67.44;99704.77;78177;1298;3026442;-64
2023/08/17 01:09:40;;;;;;;7.50;4.40;;;;;;;22.69;67.29;99703.45;79337;1301;3012939;-63
2023/08/17 01:12:16;;;;;;;6.80;4.60;;;;;;;22.68;67.47;99703.21;79224;1300;3013134;-64
2023/08/17 01:14:54;;;;;;;6.90;4.30;;;;;;;22.68;67.34;99698.44;78064;1300;3057321;-64
2023/08/17 01:17:29;;;;;;;9.50;4.20;;;;;;;22.65;67.53;99699.39;78140;1301;3049262;-63
2023/08/17 01:19:58;;;;;;;9.90;4.40;;;;;;;22.62;67.68;99696.17;78769;1295;3012985;-64
2023/08/17 01:22:25;;;;;;;8.80;4.90;;;;;;;22.60;67.64;99694.73;79505;1295;3013087;-63
2023/08/17 01:24:57;;;;;;;8.20;4.40;;;;;;;22.60;67.63;99698.00;79185;1301;3012903;-64
2023/08/17 01:27:25;;;;;;;10.10;4.60;;;;;;;22.57;67.88;99692.92;78247;1300;3052879;-65
2023/08/17 01:29:51;;;;;;;7.60;4.50;;;;;;;22.58;67.48;99692.89;79476;1301;3013061;-64
2023/08/17 01:32:27;;;;;;;9.00;4.20;;;;;;;22.57;67.28;99691.33;79229;1304;3013372;-62
2023/08/17 01:34:58;;;;;;;8.20;4.00;;;;;;;22.53;67.70;99691.39;78036;1301;3048754;-66
2023/08/17 01:37:26;;;;;;;6.30;4.20;;;;;;;22.49;67.94;99687.36;79593;1294;3011503;-63
2023/08/17 01:39:55;;;;;;;5.80;4.20;;;;;;;22.44;67.91;99683.64;78170;1300;3028682;-64
2023/08/17 01:42:21;;;;;;;8.90;4.70;;;;;;;22.43;67.97;99683.39;79480;1300;3011737;-67
2023/08/17 01:44:49;;;;;;;8.60;4.90;;;;;;;22.42;67.95;99685.20;79357;1301;3013407;-63
2023/08/17 01:47:21;;;;;;;8.20;3.70;;;;;;;22.40;67.87;99682.48;78017;1304;3051616;-64
2023/08/17 01:49:48;;;;;;;9.80;4.60;;;;;;;22.34;68.19;99680.04;79264;1301;3011603;-65
2023/08/17 01:52:16;;;;;;;8.10;4.60;;;;;;;22.35;68.02;99685.98;78233;1301;3049703;-68
2023/08/17 01:54:43;;;;;;;9.20;4.50;;;;;;;22.36;67.93;99684.98;79344;1298;3019010;-63
2023/08/17 01:57:09;;;;;;;5.00;4.50;;;;;;;22.34;68.12;99683.27;79262;1298;3011614;-64
2023/08/17 01:59:38;;;;;;;6.10;4.20;;;;;;;22.33;68.15;99681.24;78193;1300;3026701;-64
2023/08/17 02:02:04;;;;;;;7.20;4.30;;;;;;;22.32;68.18;99680.77;79468;1301;3013113;-62
2023/08/17 02:04:31;;;;;;;5.20;4.50;;;;;;;22.29;68.24;99678.93;79344;1300;3012285;-63
2023/08/17 02:06:59;;;;;;;6.80;4.10;;;;;;;22.26;68.27;99679.77;78043;1295;3028687;-62
2023/08/17 02:09:25;;;;;;;6.90;4.10;;;;;;;22.23;68.39;99673.13;79441;1295;3014257;-63
2023/08/17 02:11:52;;;;;;;10.20;4.70;;;;;;;22.20;68.37;99683.29;79363;1301;3011690;-63
2023/08/17 02:14:19;;;;;;;8.00;4.60;;;;;;;22.18;68.42;99678.33;78050;1300;3026260;-64
2023/08/17 02:16:46;;;;;;;6.60;4.50;;;;;;;22.15;68.47;99679.52;79475;1301;3013054;-66
2023/08/17 02:19:12;;;;;;;13.20;4.60;;;;;;;22.17;67.92;99681.48;79320;1301;3011867;-64
2023/08/17 02:21:40;;;;;;;6.10;4.20;;;;;;;22.16;68.16;99675.86;78155;1295;3026045;-66
2023/08/17 02:24:09;;;;;;;10.60;4.30;;;;;;;22.15;68.21;99682.40;79305;1296;3011561;-62
2023/08/17 02:26:35;;;;;;;4.30;3.80;;;;;;;22.11;68.42;99680.29;79526;1295;3011463;-64
2023/08/17 02:29:04;;;;;;;8.40;4.60;;;;;;;22.13;67.84;99685.27;78114;1301;3052343;-64
2023/08/17 02:31:30;;;;;;;6.60;4.20;;;;;;;22.15;67.78;99682.08;79722;1300;3013341;-62
2023/08/17 02:34:00;;;;;;;6.10;4.30;;;;;;;22.13;67.60;99680.40;79306;1299;3011517;-62
2023/08/17 02:36:29;;;;;;;8.10;3.70;;;;;;;22.13;67.54;99687.35;78144;1301;3049459;-65
2023/08/17 02:38:56;;;;;;;6.50;3.70;;;;;;;22.13;67.51;99688.65;79285;1301;3012105;-66
2023/08/17 02:41:22;;;;;;;10.80;4.40;;;;;;;22.15;67.34;99690.30;79249;1295;3011672;-63
2023/08/17 02:43:50;;;;;;;9.90;3.90;;;;;;;22.17;67.29;99694.89;78138;1298;3051160;-64
2023/08/17 02:46:17;;;;;;;9.60;4.10;;;;;;;22.18;67.29;99696.30;79397;1299;3013307;-65
2023/08/17 02:48:43;;;;;;;8.50;4.10;;;;;;;22.19;66.90;99694.30;79283;1300;3013658;-66
2023/08/17 02:51:11;;;;;;;6.80;4.00;;;;;;;22.20;66.91;99694.93;78074;1298;3026045;-65
2023/08/17 02:53:38;;;;;;;6.90;4.10;;;;;;;22.19;67.10;99698.15;79267;1301;3012960;-63
2023/08/17 02:56:05;;;;;;;8.10;4.50;;;;;;;22.20;67.10;99699.34;79317;1301;3013262;-66
2023/08/17 02:58:32;;;;;;;6.90;4.40;;;;;;;22.18;67.19;99702.38;78101;1301;3027759;-63
2023/08/17 03:01:02;;;;;;;11.90;4.40;;;;;;;22.20;67.07;99702.76;79511;1301;3018332;-62
2023/08/17 03:03:31;;;;;;;7.00;3.90;;;;;;;22.19;67.17;99705.45;78810;1301;3012975;-62
2023/08/17 03:05:58;;;;;;;9.70;3.90;;;;;;;22.19;67.09;99704.66;79333;1295;3021032;-64
2023/08/17 03:08:24;;;;;;;12.80;4.10;;;;;;;22.18;66.94;99702.61;79370;1295;3011759;-65
2023/08/17 03:10:52;;;;;;;11.30;4.20;;;;;;;22.15;66.86;99703.41;78182;1301;3028990;-65
2023/08/17 03:13:18;;;;;;;10.30;4.40;;;;;;;22.15;67.12;99706.88;79350;1301;3013644;-62
2023/08/17 03:15:45;;;;;;;6.80;4.00;;;;;;;22.17;66.95;99704.70;79401;1300;3011587;-67
2023/08/17 03:18:13;;;;;;;13.70;4.30;;;;;;;22.20;66.72;99703.45;78128;1301;3026582;-67
2023/08/17 03:20:40;;;;;;;6.70;4.30;;;;;;;22.21;66.66;99704.06;79402;1295;3013008;-66
2023/08/17 03:23:08;;;;;;;6.20;3.90;;;;;;;22.21;66.58;99701.75;79372;1301;3013182;-64
2023/08/17 03:25:36;;;;;;;8.00;4.10;;;;;;;22.21;66.07;99700.11;78064;1300;3048962;-63
2023/08/17 03:28:03;;;;;;;6.40;4.00;;;;;;;22.19;66.40;99699.23;79317;1301;3019064;-62
2023/08/17 03:30:30;;;;;;;5.50;3.70;;;;;;;22.22;65.91;99703.09;79301;1300;3011507;-66
2023/08/17 03:32:58;;;;;;;6.40;3.50;;;;;;;22.25;65.76;99703.60;78011;1299;3051237;-68
2023/08/17 03:35:25;;;;;;;12.30;3.90;;;;;;;22.28;65.54;99700.68;79359;1295;3014617;-65
2023/08/17 03:37:52;;;;;;;7.40;4.40;;;;;;;22.28;65.47;99699.04;79334;1295;3011525;-65
2023/08/17 03:40:20;;;;;;;7.70;3.30;;;;;;;22.33;65.12;99701.55;78156;1300;3048509;-65
2023/08/17 03:42:47;;;;;;;4.70;3.80;;;;;;;22.38;65.06;99706.38;79279;1301;3013678;-64
2023/08/17 03:45:13;;;;;;;8.30;3.90;;;;;;;22.42;64.83;99709.70;79240;1301;3011588;-63
2023/08/17 03:47:41;;;;;;;8.20;4.00;;;;;;;22.44;64.78;99703.05;78100;1300;3027018;-65
2023/08/17 03:50:09;;;;;;;11.90;4.50;;;;;;;22.45;64.94;99704.89;79286;1300;3014040;-64
2023/08/17 03:52:36;;;;;;;7.20;3.90;;;;;;;22.47;64.79;99710.28;79293;1295;3011644;-65
2023/08/17 03:55:06;;;;;;;6.40;3.40;;;;;;;22.50;64.83;99712.63;78090;1301;3049950;-68
2023/08/17 03:57:33;;;;;;;9.60;3.80;;;;;;;22.51;64.65;99715.38;79400;1300;3012732;-66
2023/08/17 03:59:59;;;;;;;8.00;3.80;;;;;;;22.55;64.82;99722.30;79302;1301;3012191;-63
2023/08/17 04:02:28;;;;;;;4.00;3.60;;;;;;;22.53;64.80;99722.14;78135;1301;3050743;-63
2023/08/17 04:04:54;;;;;;;7.60;3.90;;;;;;;22.55;64.61;99726.86;79312;1297;3013648;-63
2023/08/17 04:07:22;;;;;;;8.60;4.20;;;;;;;22.58;64.39;99725.66;79216;1298;3011698;-63
2023/08/17 04:09:50;;;;;;;10.60;4.00;;;;;;;22.62;64.31;99727.04;78213;1299;3049832;-64
2023/08/17 04:12:17;;;;;;;9.60;4.00;;;;;;;22.68;64.33;99727.36;79368;1301;3012806;-65
2023/08/17 04:14:44;;;;;;;11.00;4.60;;;;;;;22.74;64.03;99725.04;79456;1301;3011549;-64
2023/08/17 04:17:12;;;;;;;10.90;4.50;;;;;;;22.80;63.64;99727.60;78131;1301;3051773;-64
2023/08/17 04:19:39;;;;;;;6.60;4.00;;;;;;;22.89;63.35;99735.90;79328;1295;3013039;-67
2023/08/17 04:22:09;;;;;;;7.30;4.20;;;;;;;22.94;62.80;99732.52;79259;1295;3011878;-63
2023/08/17 04:24:37;;;;;;;10.00;4.30;;;;;;;22.97;62.89;99736.14;78200;1300;3050115;-63
2023/08/17 04:27:04;;;;;;;12.20;4.40;;;;;;;23.02;62.91;99734.30;79246;1301;3013455;-68
2023/08/17 04:29:31;;;;;;;11.20;5.60;;;;;;;23.06;62.70;99736.45;79485;1301;3011606;-65
2023/08/17 04:32:00;;;;;;;12.20;4.80;;;;;;;23.10;62.39;99736.20;78066;1301;3050808;-65
2023/08/17 04:34:26;;;;;;;12.60;3.70;;;;;;;23.07;62.56;99735.20;79519;1301;3013335;-64
2023/08/17 04:36:53;;;;;;;10.20;4.30;;;;;;;23.14;62.62;99738.01;79315;1300;3012860;-68
2023/08/17 04:39:21;;;;;;;8.80;4.10;;;;;;;23.23;62.16;99731.08;77962;1301;3028487;-63
2023/08/17 04:41:48;;;;;;;10.80;4.30;;;;;;;23.23;62.02;99734.42;79292;1300;3013052;-64
2023/08/17 04:44:19;;;;;;;14.90;4.80;;;;;;;23.27;62.02;99730.80;78109;1300;3069536;-63
2023/08/17 04:46:46;;;;;;;6.80;4.00;;;;;;;23.27;61.78;99728.27;79280;1295;3012986;-67
2023/08/17 04:49:13;;;;;;;7.80;3.70;;;;;;;23.32;61.65;99728.33;79236;1301;3011789;-63
2023/08/17 04:51:41;;;;;;;7.40;4.00;;;;;;;23.36;61.39;99726.38;78058;1295;3026820;-64
2023/08/17 04:54:07;;;;;;;8.30;4.10;;;;;;;23.39;61.25;99731.63;79326;1300;3012945;-64
2023/08/17 04:56:34;;;;;;;9.90;3.80;;;;;;;23.43;61.36;99730.75;79308;1301;3013186;-64
2023/08/17 04:59:02;;;;;;;9.70;3.80;;;;;;;23.44;60.90;99730.14;78193;1295;3026554;-65
2023/08/17 05:01:29;;;;;;;9.70;3.80;;;;;;;23.42;60.70;99731.48;79270;1298;3013180;-66
2023/08/17 05:03:56;;;;;;;6.60;3.40;;;;;;;23.43;60.96;99732.52;79417;1301;3012888;-64
2023/08/17 05:06:27;;;;;;;12.50;3.70;;;;;;;23.46;60.82;99737.64;78164;1295;3052398;-63
2023/08/17 05:08:55;;;;;;;8.50;3.70;;;;;;;23.43;60.94;99730.80;79302;1295;3011602;-64
2023/08/17 05:11:23;;;;;;;7.90;4.00;;;;;;;23.42;61.12;99733.76;78087;1301;3026474;-63
2023/08/17 05:13:50;;;;;;;6.90;3.70;;;;;;;23.42;60.97;99730.59;79306;1300;3020507;-64
2023/08/17 05:16:17;;;;;;;6.50;3.60;;;;;;;23.43;60.71;99732.29;79330;1299;3011759;-63
2023/08/17 05:18:44;;;;;;;6.70;3.50;;;;;;;23.45;60.64;99731.84;78170;1301;3026333;-64
2023/08/17 05:21:12;;;;;;;10.70;3.60;;;;;;;23.51;60.44;99736.44;79519;1301;3012909;-67
2023/08/17 05:23:38;;;;;;;11.60;3.30;;;;;;;23.55;60.33;99734.50;80446;1295;3011871;-65
2023/08/17 05:26:07;;;;;;;12.00;4.20;;;;;;;23.61;60.39;99738.85;78112;1300;3053189;-63
2023/08/17 05:28:34;;;;;;;9.00;3.00;;;;;;;23.64;60.24;99742.44;79517;1300;3013014;-66
2023/08/17 05:31:06;;;;;;;13.90;3.70;;;;;;;23.74;59.85;99743.32;78972;1301;3011907;-65
2023/08/17 05:33:34;;;;;;;5.70;3.60;;;;;;;23.87;59.71;99742.35;79529;1296;3012173;-66
2023/08/17 05:36:03;;;;;;;6.10;3.50;;;;;;;24.04;59.09;99742.07;79065;1297;3011681;-65
2023/08/17 05:38:30;;;;;;;6.70;3.50;;;;;;;24.21;58.82;99743.64;79475;1300;3013770;-68
2023/08/17 05:40:57;;;;;;;6.80;3.60;;;;;;;24.37;58.11;99738.15;79428;1299;3011657;-64
2023/08/17 05:43:25;;;;;;;8.70;3.90;;;;;;;24.47;57.88;99740.10;78280;1298;3026398;-66
2023/08/17 05:45:52;;;;;;;6.50;3.50;;;;;;;24.56;57.71;99738.38;79633;1300;3014892;-64
2023/08/17 05:48:19;;;;;;;6.00;3.50;;;;;;;24.65;57.12;99742.41;79456;1295;3013228;-62
2023/08/17 05:50:47;;;;;;;3.70;3.00;;;;;;;24.70;56.62;99741.36;78131;1302;3057486;-65
2023/08/17 05:53:14;;;;;;;7.10;3.10;;;;;;;24.76;56.71;99741.13;79410;1296;3013849;-67
2023/08/17 05:55:40;;;;;;;4.90;3.60;;;;;;;24.80;56.51;99745.27;79385;1296;3011518;-65
2023/08/17 05:58:08;;;;;;;7.80;3.30;;;;;;;24.87;56.60;99746.92;78175;1300;3052700;-64
2023/08/17 06:00:35;;;;;;;7.60;3.20;;;;;;;24.91;55.79;99748.08;79287;1298;3019140;-63
2023/08/17 06:03:02;;;;;;;10.20;3.20;;;;;;;24.92;55.80;99748.34;79341;1296;3011897;-65
2023/08/17 06:05:30;;;;;;;9.10;3.30;;;;;;;24.99;56.08;99749.31;78179;1301;3026148;-66
2023/08/17 06:07:57;;;;;;;9.00;3.30;;;;;;;25.09;56.13;99753.67;79331;1301;3011358;-68
2023/08/17 06:10:25;;;;;;;5.70;3.40;;;;;;;25.17;55.77;99752.67;79485;1296;3013475;-68
2023/08/17 06:12:54;;;;;;;7.20;3.40;;;;;;;25.23;55.47;99753.83;78125;1302;3052308;-67
2023/08/17 06:15:20;;;;;;;7.80;2.90;;;;;;;25.32;55.12;99752.67;79324;1300;3013909;-63
2023/08/17 06:17:49;;;;;;;10.10;3.50;;;;;;;25.40;54.75;99752.84;79645;1297;3011452;-65
2023/08/17 06:20:18;;;;;;;5.00;3.40;;;;;;;25.46;54.74;99752.05;78219;1298;3057396;-67
2023/08/17 06:22:44;;;;;;;9.20;3.40;;;;;;;25.54;54.88;99749.48;79354;1301;3014183;-64
2023/08/17 06:25:11;;;;;;;10.80;3.60;;;;;;;25.61;54.95;99752.29;79369;1301;3011811;-64
2023/08/17 06:27:41;;;;;;;9.00;3.60;;;;;;;25.65;54.76;99755.10;78147;1300;3051807;-62
2023/08/17 06:30:09;;;;;;;6.90;4.00;;;;;;;25.70;54.61;99756.64;79288;1299;3013181;-60
2023/08/17 06:32:38;;;;;;;7.70;3.20;;;;;;;25.76;54.54;99758.95;78871;1301;3013446;-62
2023/08/17 06:35:06;;;;;;;6.20;3.60;;;;;;;25.81;54.00;99758.86;79439;1302;3012677;-62
2023/08/17 06:37:32;;;;;;;8.70;3.50;;;;;;;25.87;53.86;99757.98;79511;1300;3013110;-60
2023/08/17 06:40:01;;;;;;;8.20;4.20;;;;;;;25.95;53.90;99757.14;78025;1301;3053241;-62
2023/08/17 06:42:27;;;;;;;11.40;3.30;;;;;;;26.05;53.47;99755.89;79412;1301;3014186;-63
2023/08/17 06:44:54;;;;;;;6.00;3.50;;;;;;;26.12;53.35;99757.11;79249;1295;3011813;-62
2023/08/17 06:47:21;;;;;;;8.60;3.70;;;;;;;26.20;53.55;99758.33;78092;1300;3067476;-65
2023/08/17 06:49:48;;;;;;;11.60;3.70;;;;;;;26.29;53.57;99751.14;79458;1295;3013413;-62
2023/08/17 06:52:15;;;;;;;8.80;3.80;;;;;;;26.41;53.25;99753.73;79404;1299;3013064;-66
2023/08/17 06:54:42;;;;;;;7.80;3.40;;;;;;;26.50;53.10;99753.61;78182;1308;3027755;-64
2023/08/17 06:57:09;;;;;;;12.60;4.00;;;;;;;26.56;53.08;99752.65;79355;1309;3013839;-65
2023/08/17 06:59:36;;;;;;;11.30;4.30;;;;;;;26.65;53.12;99751.71;79429;1301;3011646;-62
2023/08/17 07:02:03;;;;;;;10.10;4.00;;;;;;;26.72;53.23;99754.50;78154;1299;3028713;-62
2023/08/17 07:04:30;;;;;;;13.70;5.20;;;;;;;26.71;53.38;99752.39;79456;1296;3020654;-62
2023/08/17 07:06:57;;;;;;;11.40;4.90;;;;;;;26.78;53.26;99749.80;79380;1301;3013615;-62
2023/08/17 07:09:24;;;;;;;16.70;5.60;;;;;;;26.81;52.98;99751.04;78043;1301;3028707;-64
2023/08/17 07:11:51;;;;;;;13.00;5.40;;;;;;;26.87;52.68;99750.43;79265;1311;3013410;-67
2023/08/17 07:14:17;;;;;;;17.30;5.80;;;;;;;26.93;52.63;99745.55;79229;1301;3011816;-67
2023/08/17 07:16:45;;;;;;;12.40;5.20;;;;;;;27.00;52.33;99746.33;78148;1301;3025739;-61
2023/08/17 07:19:13;;;;;;;14.40;4.30;;;;;;;27.10;51.67;99747.02;79257;1300;3013641;-64
2023/08/17 07:21:39;;;;;;;12.30;3.70;;;;;;;27.18;51.18;99749.04;79308;1300;3011903;-62
2023/08/17 07:24:12;;;;;;;8.90;3.70;;;;;;;27.27;50.72;99749.61;78169;1301;3053492;-64
2023/08/17 07:26:39;;;;;;;16.80;3.70;;;;;;;27.36;50.30;99747.93;79523;1297;3011628;-66
2023/08/17 07:29:07;;;;;;;11.00;3.60;;;;;;;27.46;50.45;99749.57;78092;1301;3052519;-60
2023/08/17 07:31:36;;;;;;;12.40;3.40;;;;;;;27.56;49.46;99745.16;79305;1301;3018558;-62
2023/08/17 07:34:04;;;;;;;4.40;2.60;;;;;;;27.68;48.92;99746.94;79308;1301;3011773;-62
2023/08/17 07:36:32;;;;;;;4.50;2.70;;;;;;;27.75;47.99;99746.65;78305;1300;3056740;-61
2023/08/17 07:38:59;;;;;;;6.90;2.90;;;;;;;27.84;48.17;99747.39;79404;1300;3018540;-63
2023/08/17 07:41:26;;;;;;;11.70;3.00;;;;;;;27.91;48.73;99743.95;79331;1302;3011866;-61
2023/08/17 07:43:54;;;;;;;9.80;3.20;;;;;;;28.00;48.28;99742.02;78234;1302;3027891;-60
2023/08/17 07:46:21;;;;;;;7.00;2.80;;;;;;;28.13;47.90;99744.00;79334;1300;3019113;-65
2023/08/17 07:48:48;;;;;;;9.10;2.70;;;;;;;28.22;46.46;99741.34;79338;1299;3011630;-64
2023/08/17 07:51:16;;;;;;;8.50;2.40;;;;;;;28.27;45.76;99742.02;78083;1301;3055931;-62
2023/08/17 07:53:43;;;;;;;6.20;2.60;;;;;;;28.37;45.64;99743.00;79369;1301;3013558;-65
2023/08/17 07:56:09;;;;;;;10.10;2.70;;;;;;;28.48;45.55;99739.79;79351;1301;3011323;-63
2023/08/17 07:58:37;;;;;;;4.00;2.30;;;;;;;28.59;44.78;99736.09;78163;1296;3025153;-62
2023/08/17 08:01:05;;;;;;;7.60;2.30;;;;;;;28.62;43.90;99735.60;79407;1295;3013169;-66
2023/08/17 08:03:32;;;;;;;9.20;2.80;;;;;;;28.68;43.74;99733.39;79243;1296;3011838;-65
2023/08/17 08:06:00;;;;;;;8.00;2.80;;;;;;;28.76;43.39;99735.68;78184;1301;3057013;-62
2023/08/17 08:08:26;;;;;;;5.30;2.50;;;;;;;28.84;43.27;99734.34;79456;1296;3013045;-64
2023/08/17 08:10:53;;;;;;;7.70;3.00;;;;;;;28.88;43.82;99734.33;79312;1295;3011901;-64
2023/08/17 08:13:21;;;;;;;8.50;2.90;;;;;;;28.90;44.18;99732.74;78069;1300;3028282;-65
2023/08/17 08:15:48;;;;;;;8.70;3.10;;;;;;;29.00;44.64;99731.92;79352;1301;3013550;-66
2023/08/17 08:18:14;;;;;;;9.80;2.90;;;;;;;29.09;44.39;99729.39;79390;1301;3011425;-65
2023/08/17 08:20:42;;;;;;;3.90;2.50;;;;;;;29.12;44.55;99728.02;78077;1295;3026284;-67
2023/08/17 08:23:09;;;;;;;9.50;3.10;;;;;;;29.11;44.85;99729.18;79280;1301;3013670;-68
2023/08/17 08:25:35;;;;;;;10.10;3.30;;;;;;;29.16;44.86;99725.89;79268;1296;3011507;-67
2023/08/17 08:28:03;;;;;;;11.50;3.00;;;;;;;29.21;44.66;99725.19;78198;1300;3025919;-64
2023/08/17 08:30:30;;;;;;;9.30;2.80;;;;;;;29.27;44.24;99726.63;79500;1300;3012906;-65
2023/08/17 08:32:58;;;;;;;6.00;2.80;;;;;;;29.35;42.72;99728.98;79418;1300;3011841;-66
2023/08/17 08:35:26;;;;;;;8.80;2.80;;;;;;;29.38;43.03;99731.40;78047;1300;3056124;-66
2023/08/17 08:37:55;;;;;;;10.70;2.80;;;;;;;29.46;42.86;99726.56;79329;1295;3013393;-64
2023/08/17 08:40:29;;;;;;;9.70;3.30;;;;;;;29.54;42.46;99724.23;79252;1300;3013665;-68
2023/08/17 08:42:57;;;;;;;5.90;2.50;;;;;;;29.55;41.92;99728.92;78123;1300;3052652;-68
2023/08/17 08:45:24;;;;;;;2.50;1.90;;;;;;;29.60;41.69;99729.52;79415;1299;3012943;-68
2023/08/17 08:47:50;;;;;;;6.80;2.40;;;;;;;29.71;41.66;99733.25;79379;1301;3013387;-66
2023/08/17 08:50:22;;;;;;;3.40;2.30;;;;;;;29.77;42.06;99729.33;78136;1295;3024765;-67
2023/08/17 08:52:59;;;;;;;8.00;2.90;;;;;;;29.83;41.69;99730.81;79528;1299;3011669;-65
2023/08/17 08:55:29;;;;;;;3.70;2.50;;;;;;;29.94;42.11;99731.66;78144;1296;3054131;-65
2023/08/17 08:57:56;;;;;;;7.80;2.80;;;;;;;30.08;41.73;99732.27;79494;1295;3013885;-65
2023/08/17 09:00:22;;;;;;;4.90;2.70;;;;;;;30.19;41.79;99735.98;79393;1301;3011679;-64
2023/08/17 09:02:51;;;;;;;10.30;2.40;;;;;;;30.25;41.77;99733.25;78204;1294;3068684;-68
2023/08/17 09:05:18;;;;;;;5.70;2.70;;;;;;;30.31;42.05;99729.27;79477;1295;3014521;-66
2023/08/17 09:07:45;;;;;;;9.80;2.50;;;;;;;30.37;41.91;99723.05;79365;1295;3011699;-65
2023/08/17 09:10:12;;;;;;;7.30;2.50;;;;;;;30.33;41.49;99731.88;78097;1296;3054324;-62
2023/08/17 09:12:39;;;;;;;5.70;2.60;;;;;;;30.35;41.09;99729.64;79319;1301;3019113;-65
2023/08/17 09:15:06;;;;;;;6.80;2.20;;;;;;;30.45;40.63;99727.11;79457;1300;3011864;-63
2023/08/17 09:17:34;;;;;;;5.10;2.30;;;;;;;30.60;39.72;99726.09;78217;1298;3026342;-67
2023/08/17 09:20:01;;;;;;;6.70;2.50;;;;;;;30.63;39.72;99722.86;79464;1295;3013394;-64
2023/08/17 09:22:41;;;;;;;6.00;2.30;;;;;;;30.74;40.00;99726.23;79263;1299;3011756;-69
2023/08/17 09:25:10;;;;;;;5.10;2.50;;;;;;;30.80;39.59;99724.79;78205;1301;3053152;-68
2023/08/17 09:27:37;;;;;;;6.80;2.20;;;;;;;30.57;39.76;99722.23;79606;1295;3013236;-67
2023/08/17 09:30:05;;;;;;;6.00;1.80;;;;;;;30.64;39.67;99723.80;79515;1294;3011781;-65
2023/08/17 09:32:34;;;;;;;6.10;2.60;;;;;;;30.74;39.10;99722.15;78150;1294;3069014;-65
2023/08/17 09:35:05;;;;;;;3.40;2.10;;;;;;;30.85;39.26;99719.91;79505;1295;3020770;-70
2023/08/17 09:37:33;;;;;;;3.60;2.30;;;;;;;30.94;38.93;99716.08;78331;1295;3047958;-64
2023/08/17 09:40:00;;;;;;;12.90;2.40;;;;;;;30.98;39.10;99716.61;79685;1298;3013557;-66
2023/08/17 09:42:27;;;;;;;3.60;2.40;;;;;;;31.04;39.03;99714.67;79424;1297;3011744;-66
2023/08/17 09:44:55;;;;;;;4.10;2.50;;;;;;;31.08;38.50;99715.05;78316;1298;3052929;-65
2023/08/17 09:47:22;;;;;;;4.80;2.10;;;;;;;31.17;38.52;99714.84;79619;1300;3018521;-64
2023/08/17 09:49:50;;;;;;;6.50;2.40;;;;;;;31.17;38.63;99716.09;79379;1296;3013013;-64
2023/08/17 09:52:19;;;;;;;5.20;2.10;;;;;;;31.20;38.70;99711.08;78246;1298;3048772;-63
2023/08/17 09:54:47;;;;;;;4.30;2.50;;;;;;;31.34;38.50;99712.87;79487;1295;3013801;-64
2023/08/17 09:57:14;;;;;;;9.70;2.80;;;;;;;31.38;38.29;99714.41;79485;1298;3011935;-65
2023/08/17 09:59:42;;;;;;;6.70;2.10;;;;;;;31.38;38.33;99713.04;78218;1298;3051162;-64
2023/08/17 10:02:20;;;;;;;4.30;2.20;;;;;;;31.42;37.73;99714.67;79417;1295;3020882;-62
2023/08/17 10:04:51;;;;;;;8.70;2.20;;;;;;;31.42;37.50;99713.23;78290;1294;3057544;-63
2023/08/17 10:07:21;;;;;;;6.30;2.50;;;;;;;31.57;36.96;99709.48;79416;1295;3011936;-64
2023/08/17 10:09:56;;;;;;;6.00;2.30;;;;;;;31.65;36.55;99710.20;78134;1295;3052839;-61
2023/08/17 10:12:28;;;;;;;6.70;2.30;;;;;;;31.68;36.16;99710.13;78896;1300;3011770;-62
2023/08/17 10:15:02;;;;;;;6.40;2.00;;;;;;;31.66;36.53;99709.74;79282;1300;3013682;-61
2023/08/17 10:17:37;;;;;;;4.00;2.10;;;;;;;31.66;36.29;99709.48;78216;1300;3052730;-61
2023/08/17 10:20:07;;;;;;;4.10;2.50;;;;;;;31.79;36.26;99708.21;78976;1301;3013710;-63
2023/08/17 10:22:42;;;;;;;3.60;2.20;;;;;;;31.89;36.38;99708.14;79537;1301;3014287;-63
2023/08/17 10:25:11;;;;;;;5.70;2.40;;;;;;;31.95;36.62;99707.34;78253;1298;3051637;-60
2023/08/17 10:27:38;;;;;;;4.90;2.10;;;;;;;31.75;36.33;99704.78;79346;1296;3013418;-61
2023/08/17 10:30:05;;;;;;;6.50;2.50;;;;;;;31.84;36.34;99705.98;79373;1294;3013007;-60
2023/08/17 10:32:34;;;;;;;5.10;2.20;;;;;;;31.87;36.07;99706.65;78229;1298;3049380;-62
2023/08/17 10:35:01;;;;;;;4.90;2.40;;;;;;;32.02;36.03;99706.55;79321;1297;3013310;-62
2023/08/17 10:37:29;;;;;;;7.10;2.40;;;;;;;32.18;35.70;99709.28;79330;1295;3011650;-63
2023/08/17 10:39:57;;;;;;;4.50;2.40;;;;;;;32.27;35.32;99714.02;78092;1301;3051439;-63
2023/08/17 10:42:35;;;;;;;5.40;1.90;;;;;;;32.18;35.29;99707.33;79381;1301;3013620;-63
2023/08/17 10:45:21;;;;;;;8.70;2.40;;;;;;;31.95;35.74;99709.35;78138;1295;3044654;-61
2023/08/17 10:47:49;;;;;;;5.10;2.30;;;;;;;31.92;36.21;99707.09;78134;1300;3051097;-62
2023/08/17 10:50:26;;;;;;;6.80;2.30;;;;;;;32.09;36.13;99706.80;79364;1298;3013463;-63
2023/08/17 10:52:54;;;;;;;6.70;2.40;;;;;;;32.23;35.18;99705.30;78046;1296;3068885;-61
2023/08/17 10:55:40;;;;;;;4.40;2.20;;;;;;;32.25;35.08;99708.02;79384;1295;3013165;-62
2023/08/17 10:58:13;;;;;;;5.70;2.20;;;;;;;32.32;35.19;99703.59;78055;1301;3049608;-65
2023/08/17 11:00:42;;;;;;;7.70;2.30;;;;;;;32.47;34.68;99705.35;79412;1294;3011927;-63
2023/08/17 11:03:17;;;;;;;8.00;2.20;;;;;;;32.58;34.33;99701.16;78108;1301;3041853;-63
2023/08/17 11:05:49;;;;;;;9.60;2.30;;;;;;;32.45;34.51;99698.13;78070;1301;3052380;-62
2023/08/17 11:08:29;;;;;;;10.00;2.80;;;;;;;32.52;34.65;99698.78;79292;1298;3011929;-63
2023/08/17 11:11:10;;;;;;;8.60;2.20;;;;;;;32.61;34.76;99700.59;78130;1296;3059845;-64
2023/08/17 11:13:42;;;;;;;7.80;2.50;;;;;;;32.72;34.56;99699.20;78063;1299;3051745;-62
2023/08/17 11:16:09;;;;;;;4.70;2.50;;;;;;;32.84;34.42;99699.23;79358;1300;3013273;-62
2023/08/17 11:18:37;;;;;;;8.80;2.60;;;;;;;32.93;34.10;99695.41;78146;1299;3049283;-61